sensor_id;sensor_type;location;lat;lon;timestamp;temperature;humidity
54788;DHT22;59598;48.112;16.280;2023-07-13T00:01:25;18.80;99.90
54788;DHT22;59598;48.112;16.280;2023-07-13T00:03:57;18.70;99.90
54788;DHT22;59598;48.112;16.280;2023-07-13T00:06:30;18.80;99.90
54788;DHT22;59598;48.112;16.280;2023-07-13T00:09:03;18.70;99.90
54788;DHT22;59598;48.112;16.280;2023-07-13T00:11:37;18.70;99.90
54788;DHT22;59598;48.112;16.280;2023-07-13T00:14:11;18.60;99.90
54788;DHT22;59598;48.112;16.280;2023-07-13T00:16:47;18.50;99.90
54788;DHT22;59598;48.112;16.280;2023-07-13T00:19:21;18.50;99.90
54788;DHT22;59598;48.112;16.280;2023-07-13T00:21:58;18.50;99.90
54788;DHT22;59598;48.112;16.280;2023-07-13T00:24:37;18.40;99.90
54788;DHT22;59598;48.112;16.280;2023-07-13T00:27:15;18.30;99.90
54788;DHT22;59598;48.112;16.280;2023-07-13T00:29:46;18.30;99.90
54788;DHT22;59598;48.112;16.280;2023-07-13T00:32:20;18.30;99.90
54788;DHT22;59598;48.112;16.280;2023-07-13T00:34:52;18.20;99.90
54788;DHT22;59598;48.112;16.280;2023-07-13T00:37:23;18.30;99.90
54788;DHT22;59598;48.112;16.280;2023-07-13T00:39:54;18.30;99.90
54788;DHT22;59598;48.112;16.280;2023-07-13T00:42:26;18.30;99.90
54788;DHT22;59598;48.112;16.280;2023-07-13T00:47:36;18.30;99.90
54788;DHT22;59598;48.112;16.280;2023-07-13T00:50:11;18.20;99.90
54788;DHT22;59598;48.112;16.280;2023-07-13T00:52:49;18.20;99.90
54788;DHT22;59598;48.112;16.280;2023-07-13T00:55:25;18.20;99.90
54788;DHT22;59598;48.112;16.280;2023-07-13T00:57:59;18.20;99.90
54788;DHT22;59598;48.112;16.280;2023-07-13T01:03:12;18.20;99.90
54788;DHT22;59598;48.112;16.280;2023-07-13T01:05:47;18.20;99.90
54788;DHT22;59598;48.112;16.280;2023-07-13T01:08:21;18.50;99.90
54788;DHT22;59598;48.112;16.280;2023-07-13T01:10:58;19.00;1.00
54788;DHT22;59598;48.112;16.280;2023-07-13T01:13:34;19.80;99.90
54788;DHT22;59598;48.112;16.280;2023-07-13T01:16:18;20.40;1.00
54788;DHT22;59598;48.112;16.280;2023-07-13T01:19:01;20.80;1.00
54788;DHT22;59598;48.112;16.280;2023-07-13T01:21:34;21.00;1.00
54788;DHT22;59598;48.112;16.280;2023-07-13T01:24:07;21.00;1.00
54788;DHT22;59598;48.112;16.280;2023-07-13T01:26:38;21.00;1.00
54788;DHT22;59598;48.112;16.280;2023-07-13T01:29:18;21.20;99.90
54788;DHT22;59598;48.112;16.280;2023-07-13T01:31:52;21.50;1.00
54788;DHT22;59598;48.112;16.280;2023-07-13T01:34:24;21.50;1.00
54788;DHT22;59598;48.112;16.280;2023-07-13T01:36:59;21.60;1.00
54788;DHT22;59598;48.112;16.280;2023-07-13T01:39:33;21.60;1.00
54788;DHT22;59598;48.112;16.280;2023-07-13T01:42:05;21.70;1.00
54788;DHT22;59598;48.112;16.280;2023-07-13T01:44:36;21.70;1.00
54788;DHT22;59598;48.112;16.280;2023-07-13T01:47:08;21.80;1.00
54788;DHT22;59598;48.112;16.280;2023-07-13T01:49:45;22.00;1.00
54788;DHT22;59598;48.112;16.280;2023-07-13T01:55:49;22.00;1.00
54788;DHT22;59598;48.112;16.280;2023-07-13T01:58:20;22.00;1.00
54788;DHT22;59598;48.112;16.280;2023-07-13T02:00:56;22.00;1.00
54788;DHT22;59598;48.112;16.280;2023-07-13T02:03:30;22.10;1.00
54788;DHT22;59598;48.112;16.280;2023-07-13T02:06:02;22.10;1.00
54788;DHT22;59598;48.112;16.280;2023-07-13T02:08:37;22.20;1.00
54788;DHT22;59598;48.112;16.280;2023-07-13T02:11:11;22.20;1.00
54788;DHT22;59598;48.112;16.280;2023-07-13T02:13:44;22.30;1.00
54788;DHT22;59598;48.112;16.280;2023-07-13T02:16:19;22.30;1.00
54788;DHT22;59598;48.112;16.280;2023-07-13T02:18:51;22.30;1.00
54788;DHT22;59598;48.112;16.280;2023-07-13T02:21:23;22.30;1.00
54788;DHT22;59598;48.112;16.280;2023-07-13T02:23:56;22.40;1.00
54788;DHT22;59598;48.112;16.280;2023-07-13T02:26:31;22.40;3.10
54788;DHT22;59598;48.112;16.280;2023-07-13T02:29:05;22.30;78.70
54788;DHT22;59598;48.112;16.280;2023-07-13T02:31:41;22.20;99.90
54788;DHT22;59598;48.112;16.280;2023-07-13T02:37:45;22.20;99.90
54788;DHT22;59598;48.112;16.280;2023-07-13T02:40:17;22.10;99.90
54788;DHT22;59598;48.112;16.280;2023-07-13T02:42:51;21.90;1.00
54788;DHT22;59598;48.112;16.280;2023-07-13T02:48:50;21.30;1.00
54788;DHT22;59598;48.112;16.280;2023-07-13T02:51:30;21.00;99.90
54788;DHT22;59598;48.112;16.280;2023-07-13T02:54:25;20.70;1.00
54788;DHT22;59598;48.112;16.280;2023-07-13T02:56:59;20.30;1.00
54788;DHT22;59598;48.112;16.280;2023-07-13T02:59:53;20.00;1.00
54788;DHT22;59598;48.112;16.280;2023-07-13T03:02:34;19.70;68.30
54788;DHT22;59598;48.112;16.280;2023-07-13T03:05:24;19.50;99.90
54788;DHT22;59598;48.112;16.280;2023-07-13T03:08:57;19.40;99.90
54788;DHT22;59598;48.112;16.280;2023-07-13T03:18:49;18.90;99.90
54788;DHT22;59598;48.112;16.280;2023-07-13T03:21:24;18.70;99.90
54788;DHT22;59598;48.112;16.280;2023-07-13T03:23:57;18.60;99.90
54788;DHT22;59598;48.112;16.280;2023-07-13T03:26:29;18.50;99.90
54788;DHT22;59598;48.112;16.280;2023-07-13T03:29:05;18.50;99.90
54788;DHT22;59598;48.112;16.280;2023-07-13T03:31:38;18.40;99.90
54788;DHT22;59598;48.112;16.280;2023-07-13T03:34:17;18.40;99.90
54788;DHT22;59598;48.112;16.280;2023-07-13T03:36:53;18.30;99.90
54788;DHT22;59598;48.112;16.280;2023-07-13T03:39:33;18.30;99.90
54788;DHT22;59598;48.112;16.280;2023-07-13T03:42:09;18.30;99.90
54788;DHT22;59598;48.112;16.280;2023-07-13T03:44:42;18.20;99.90
54788;DHT22;59598;48.112;16.280;2023-07-13T03:47:27;18.20;99.90
54788;DHT22;59598;48.112;16.280;2023-07-13T03:50:40;18.20;99.90
54788;DHT22;59598;48.112;16.280;2023-07-13T03:53:14;18.20;99.90
54788;DHT22;59598;48.112;16.280;2023-07-13T03:55:51;18.20;99.90
54788;DHT22;59598;48.112;16.280;2023-07-13T03:58:32;18.20;99.90
54788;DHT22;59598;48.112;16.280;2023-07-13T04:01:15;18.30;99.90
54788;DHT22;59598;48.112;16.280;2023-07-13T04:03:48;18.20;99.90
54788;DHT22;59598;48.112;16.280;2023-07-13T04:06:33;18.20;99.90
54788;DHT22;59598;48.112;16.280;2023-07-13T04:09:08;18.30;99.90
54788;DHT22;59598;48.112;16.280;2023-07-13T04:11:47;18.30;99.90
54788;DHT22;59598;48.112;16.280;2023-07-13T04:14:28;18.20;99.90
54788;DHT22;59598;48.112;16.280;2023-07-13T04:17:08;18.20;99.90
54788;DHT22;59598;48.112;16.280;2023-07-13T04:19:55;18.30;99.90
54788;DHT22;59598;48.112;16.280;2023-07-13T04:22:41;18.20;99.90
54788;DHT22;59598;48.112;16.280;2023-07-13T04:28:45;18.10;99.90
54788;DHT22;59598;48.112;16.280;2023-07-13T04:31:27;18.10;99.90
54788;DHT22;59598;48.112;16.280;2023-07-13T04:34:03;18.00;99.90
54788;DHT22;59598;48.112;16.280;2023-07-13T04:36:38;18.00;99.90
54788;DHT22;59598;48.112;16.280;2023-07-13T04:39:23;18.10;99.90
54788;DHT22;59598;48.112;16.280;2023-07-13T04:41:59;18.10;99.90
54788;DHT22;59598;48.112;16.280;2023-07-13T04:44:32;18.10;99.90
54788;DHT22;59598;48.112;16.280;2023-07-13T04:47:13;18.10;99.90
54788;DHT22;59598;48.112;16.280;2023-07-13T04:49:46;18.20;99.90
54788;DHT22;59598;48.112;16.280;2023-07-13T04:52:48;18.20;99.90
54788;DHT22;59598;48.112;16.280;2023-07-13T04:55:32;18.20;99.90
54788;DHT22;59598;48.112;16.280;2023-07-13T04:58:05;18.30;99.90
54788;DHT22;59598;48.112;16.280;2023-07-13T05:00:36;18.50;99.90
54788;DHT22;59598;48.112;16.280;2023-07-13T05:03:11;18.50;99.90
54788;DHT22;59598;48.112;16.280;2023-07-13T05:05:42;18.40;99.90
54788;DHT22;59598;48.112;16.280;2023-07-13T05:08:13;18.50;99.90
54788;DHT22;59598;48.112;16.280;2023-07-13T05:10:49;18.70;99.90
54788;DHT22;59598;48.112;16.280;2023-07-13T05:13:21;18.70;99.90
54788;DHT22;59598;48.112;16.280;2023-07-13T05:16:20;18.70;99.90
54788;DHT22;59598;48.112;16.280;2023-07-13T05:18:53;18.60;99.90
54788;DHT22;59598;48.112;16.280;2023-07-13T05:21:27;18.60;99.90
54788;DHT22;59598;48.112;16.280;2023-07-13T05:23:58;18.70;99.90
54788;DHT22;59598;48.112;16.280;2023-07-13T05:26:36;18.80;99.90
54788;DHT22;59598;48.112;16.280;2023-07-13T05:29:07;19.00;99.90
54788;DHT22;59598;48.112;16.280;2023-07-13T05:31:38;19.20;99.90
54788;DHT22;59598;48.112;16.280;2023-07-13T05:34:10;19.50;99.90
54788;DHT22;59598;48.112;16.280;2023-07-13T05:36:42;19.60;99.90
54788;DHT22;59598;48.112;16.280;2023-07-13T05:39:13;19.60;99.90
54788;DHT22;59598;48.112;16.280;2023-07-13T05:41:46;19.50;99.90
54788;DHT22;59598;48.112;16.280;2023-07-13T05:44:22;19.50;99.90
54788;DHT22;59598;48.112;16.280;2023-07-13T05:46:55;19.50;99.90
54788;DHT22;59598;48.112;16.280;2023-07-13T05:49:30;19.50;99.90
54788;DHT22;59598;48.112;16.280;2023-07-13T05:52:06;19.50;99.90
54788;DHT22;59598;48.112;16.280;2023-07-13T05:54:44;19.50;99.90
54788;DHT22;59598;48.112;16.280;2023-07-13T05:57:15;19.40;99.90
54788;DHT22;59598;48.112;16.280;2023-07-13T05:59:49;19.50;99.90
54788;DHT22;59598;48.112;16.280;2023-07-13T06:02:20;19.50;26.50
54788;DHT22;59598;48.112;16.280;2023-07-13T06:04:52;19.50;37.40
54788;DHT22;59598;48.112;16.280;2023-07-13T06:07:23;19.50;16.50
54788;DHT22;59598;48.112;16.280;2023-07-13T06:09:57;19.50;1.00
54788;DHT22;59598;48.112;16.280;2023-07-13T06:12:30;19.50;1.00
54788;DHT22;59598;48.112;16.280;2023-07-13T06:15:04;19.50;1.00
54788;DHT22;59598;48.112;16.280;2023-07-13T06:17:35;19.60;68.40
54788;DHT22;59598;48.112;16.280;2023-07-13T06:20:12;19.50;99.90
54788;DHT22;59598;48.112;16.280;2023-07-13T06:22:47;19.50;99.90
54788;DHT22;59598;48.112;16.280;2023-07-13T06:25:19;19.40;67.90
54788;DHT22;59598;48.112;16.280;2023-07-13T06:27:53;19.50;59.70
54788;DHT22;59598;48.112;16.280;2023-07-13T06:30:26;19.60;99.90
54788;DHT22;59598;48.112;16.280;2023-07-13T06:32:58;19.70;1.00
54788;DHT22;59598;48.112;16.280;2023-07-13T06:35:29;19.80;1.00
54788;DHT22;59598;48.112;16.280;2023-07-13T06:38:01;19.90;1.00
54788;DHT22;59598;48.112;16.280;2023-07-13T06:40:33;20.00;1.00
54788;DHT22;59598;48.112;16.280;2023-07-13T06:43:05;20.10;1.00
54788;DHT22;59598;48.112;16.280;2023-07-13T06:45:42;20.30;1.00
54788;DHT22;59598;48.112;16.280;2023-07-13T06:48:19;20.50;99.90
54788;DHT22;59598;48.112;16.280;2023-07-13T06:50:52;20.80;1.00
54788;DHT22;59598;48.112;16.280;2023-07-13T06:53:24;20.80;99.90
54788;DHT22;59598;48.112;16.280;2023-07-13T06:56:00;21.00;99.90
54788;DHT22;59598;48.112;16.280;2023-07-13T06:58:40;21.10;7.90
54788;DHT22;59598;48.112;16.280;2023-07-13T07:01:11;21.30;1.00
54788;DHT22;59598;48.112;16.280;2023-07-13T07:03:45;21.60;1.00
54788;DHT22;59598;48.112;16.280;2023-07-13T07:06:22;21.80;99.90
54788;DHT22;59598;48.112;16.280;2023-07-13T07:08:57;22.00;99.90
54788;DHT22;59598;48.112;16.280;2023-07-13T07:11:29;22.10;99.90
54788;DHT22;59598;48.112;16.280;2023-07-13T07:14:02;22.10;99.90
54788;DHT22;59598;48.112;16.280;2023-07-13T07:16:36;21.90;99.90
54788;DHT22;59598;48.112;16.280;2023-07-13T07:19:09;21.70;99.90
54788;DHT22;59598;48.112;16.280;2023-07-13T07:21:41;21.50;1.00
54788;DHT22;59598;48.112;16.280;2023-07-13T07:24:15;21.50;1.00
54788;DHT22;59598;48.112;16.280;2023-07-13T07:26:46;21.50;1.00
54788;DHT22;59598;48.112;16.280;2023-07-13T07:29:18;21.60;1.00
54788;DHT22;59598;48.112;16.280;2023-07-13T07:31:52;21.60;99.90
54788;DHT22;59598;48.112;16.280;2023-07-13T07:34:23;21.70;99.90
54788;DHT22;59598;48.112;16.280;2023-07-13T07:37:01;21.60;99.90
54788;DHT22;59598;48.112;16.280;2023-07-13T07:39:35;21.60;99.90
54788;DHT22;59598;48.112;16.280;2023-07-13T07:42:12;21.70;1.00
54788;DHT22;59598;48.112;16.280;2023-07-13T07:44:51;21.70;1.00
54788;DHT22;59598;48.112;16.280;2023-07-13T07:47:25;21.80;1.00
54788;DHT22;59598;48.112;16.280;2023-07-13T07:49:57;22.20;1.00
54788;DHT22;59598;48.112;16.280;2023-07-13T07:52:30;22.60;99.90
54788;DHT22;59598;48.112;16.280;2023-07-13T07:55:06;23.20;99.90
54788;DHT22;59598;48.112;16.280;2023-07-13T07:57:37;23.70;1.00
54788;DHT22;59598;48.112;16.280;2023-07-13T08:00:13;23.50;1.00
54788;DHT22;59598;48.112;16.280;2023-07-13T08:02:50;23.30;1.00
54788;DHT22;59598;48.112;16.280;2023-07-13T08:05:23;23.20;1.00
54788;DHT22;59598;48.112;16.280;2023-07-13T08:07:54;23.30;1.00
54788;DHT22;59598;48.112;16.280;2023-07-13T08:10:25;23.60;1.00
54788;DHT22;59598;48.112;16.280;2023-07-13T08:12:57;24.10;99.90
54788;DHT22;59598;48.112;16.280;2023-07-13T08:15:31;24.50;99.90
54788;DHT22;59598;48.112;16.280;2023-07-13T08:18:04;24.90;1.00
54788;DHT22;59598;48.112;16.280;2023-07-13T08:20:39;25.20;1.00
54788;DHT22;59598;48.112;16.280;2023-07-13T08:23:10;25.20;99.90
54788;DHT22;59598;48.112;16.280;2023-07-13T08:25:44;25.20;99.90
54788;DHT22;59598;48.112;16.280;2023-07-13T08:28:21;25.70;99.90
54788;DHT22;59598;48.112;16.280;2023-07-13T08:30:53;26.20;99.90
54788;DHT22;59598;48.112;16.280;2023-07-13T08:33:29;26.00;1.00
54788;DHT22;59598;48.112;16.280;2023-07-13T08:36:01;25.90;1.00
54788;DHT22;59598;48.112;16.280;2023-07-13T08:38:36;26.00;1.00
54788;DHT22;59598;48.112;16.280;2023-07-13T08:41:16;25.80;1.00
54788;DHT22;59598;48.112;16.280;2023-07-13T08:43:58;25.60;1.00
54788;DHT22;59598;48.112;16.280;2023-07-13T08:46:36;25.60;1.00
54788;DHT22;59598;48.112;16.280;2023-07-13T08:49:13;25.80;1.00
54788;DHT22;59598;48.112;16.280;2023-07-13T08:51:58;25.90;1.00
54788;DHT22;59598;48.112;16.280;2023-07-13T08:54:44;26.00;1.00
54788;DHT22;59598;48.112;16.280;2023-07-13T08:57:27;26.00;1.00
54788;DHT22;59598;48.112;16.280;2023-07-13T09:00:01;26.10;1.00
54788;DHT22;59598;48.112;16.280;2023-07-13T09:08:12;26.70;1.00
54788;DHT22;59598;48.112;16.280;2023-07-13T09:11:05;26.70;1.00
54788;DHT22;59598;48.112;16.280;2023-07-13T09:13:43;26.70;99.90
54788;DHT22;59598;48.112;16.280;2023-07-13T09:16:23;26.70;99.90
54788;DHT22;59598;48.112;16.280;2023-07-13T09:19:02;26.70;99.90
54788;DHT22;59598;48.112;16.280;2023-07-13T09:21:43;26.80;99.90
54788;DHT22;59598;48.112;16.280;2023-07-13T09:24:38;26.90;99.90
54788;DHT22;59598;48.112;16.280;2023-07-13T09:27:19;26.60;99.90
54788;DHT22;59598;48.112;16.280;2023-07-13T09:30:22;26.00;99.90
54788;DHT22;59598;48.112;16.280;2023-07-13T09:32:59;25.70;99.90
54788;DHT22;59598;48.112;16.280;2023-07-13T09:35:31;25.70;99.90
54788;DHT22;59598;48.112;16.280;2023-07-13T09:38:18;25.80;99.90
54788;DHT22;59598;48.112;16.280;2023-07-13T09:43:34;25.60;99.90
54788;DHT22;59598;48.112;16.280;2023-07-13T09:46:20;25.60;99.90
54788;DHT22;59598;48.112;16.280;2023-07-13T09:48:58;25.70;99.90
54788;DHT22;59598;48.112;16.280;2023-07-13T09:51:29;26.00;99.90
54788;DHT22;59598;48.112;16.280;2023-07-13T09:54:00;26.50;99.90
54788;DHT22;59598;48.112;16.280;2023-07-13T09:56:33;26.80;39.20
54788;DHT22;59598;48.112;16.280;2023-07-13T09:59:21;27.30;99.70
54788;DHT22;59598;48.112;16.280;2023-07-13T10:01:55;27.70;1.00
54788;DHT22;59598;48.112;16.280;2023-07-13T10:04:35;28.00;1.00
54788;DHT22;59598;48.112;16.280;2023-07-13T10:07:12;28.20;99.90
54788;DHT22;59598;48.112;16.280;2023-07-13T10:09:46;28.50;99.90
54788;DHT22;59598;48.112;16.280;2023-07-13T10:12:19;28.50;99.90
54788;DHT22;59598;48.112;16.280;2023-07-13T10:14:56;28.40;99.90
54788;DHT22;59598;48.112;16.280;2023-07-13T10:17:32;28.10;99.90
54788;DHT22;59598;48.112;16.280;2023-07-13T10:20:08;28.20;99.90
54788;DHT22;59598;48.112;16.280;2023-07-13T10:23:00;27.80;99.90
54788;DHT22;59598;48.112;16.280;2023-07-13T10:25:39;27.70;99.90
54788;DHT22;59598;48.112;16.280;2023-07-13T10:30:59;28.40;99.90
54788;DHT22;59598;48.112;16.280;2023-07-13T10:33:36;29.10;99.90
54788;DHT22;59598;48.112;16.280;2023-07-13T10:36:14;29.20;99.90
54788;DHT22;59598;48.112;16.280;2023-07-13T10:38:53;29.00;99.90
54788;DHT22;59598;48.112;16.280;2023-07-13T10:41:30;29.00;99.90
54788;DHT22;59598;48.112;16.280;2023-07-13T10:44:21;28.00;99.90
54788;DHT22;59598;48.112;16.280;2023-07-13T10:46:55;27.80;99.90
54788;DHT22;59598;48.112;16.280;2023-07-13T10:49:34;27.50;99.90
54788;DHT22;59598;48.112;16.280;2023-07-13T10:52:20;27.40;99.90
54788;DHT22;59598;48.112;16.280;2023-07-13T10:54:57;27.30;97.20
54788;DHT22;59598;48.112;16.280;2023-07-13T10:57:31;26.80;99.90
54788;DHT22;59598;48.112;16.280;2023-07-13T11:00:17;27.00;99.90
54788;DHT22;59598;48.112;16.280;2023-07-13T11:02:57;27.20;99.90
54788;DHT22;59598;48.112;16.280;2023-07-13T11:05:32;27.30;99.90
54788;DHT22;59598;48.112;16.280;2023-07-13T11:16:58;27.90;99.90
54788;DHT22;59598;48.112;16.280;2023-07-13T11:19:40;27.80;99.90
54788;DHT22;59598;48.112;16.280;2023-07-13T11:22:17;28.20;44.30
54788;DHT22;59598;48.112;16.280;2023-07-13T11:24:56;29.10;81.80
54788;DHT22;59598;48.112;16.280;2023-07-13T11:27:41;30.00;1.00
54788;DHT22;59598;48.112;16.280;2023-07-13T11:35:58;29.90;1.00
54788;DHT22;59598;48.112;16.280;2023-07-13T11:41:25;29.50;1.00
54788;DHT22;59598;48.112;16.280;2023-07-13T11:44:20;29.90;1.00
54788;DHT22;59598;48.112;16.280;2023-07-13T11:46:59;31.10;1.00
54788;DHT22;59598;48.112;16.280;2023-07-13T11:49:44;32.60;1.00
54788;DHT22;59598;48.112;16.280;2023-07-13T11:52:22;32.50;1.00
54788;DHT22;59598;48.112;16.280;2023-07-13T11:54:56;32.20;1.00
54788;DHT22;59598;48.112;16.280;2023-07-13T11:57:39;31.90;99.90
54788;DHT22;59598;48.112;16.280;2023-07-13T12:00:25;31.40;1.00
54788;DHT22;59598;48.112;16.280;2023-07-13T12:03:01;31.10;1.00
54788;DHT22;59598;48.112;16.280;2023-07-13T12:05:40;31.50;99.90
54788;DHT22;59598;48.112;16.280;2023-07-13T12:08:24;31.50;99.90
54788;DHT22;59598;48.112;16.280;2023-07-13T12:11:09;30.10;22.20
54788;DHT22;59598;48.112;16.280;2023-07-13T12:13:46;30.40;1.00
54788;DHT22;59598;48.112;16.280;2023-07-13T12:16:31;31.80;1.00
54788;DHT22;59598;48.112;16.280;2023-07-13T12:19:17;32.60;1.00
54788;DHT22;59598;48.112;16.280;2023-07-13T12:21:54;32.80;99.90
54788;DHT22;59598;48.112;16.280;2023-07-13T12:24:29;33.00;99.90
54788;DHT22;59598;48.112;16.280;2023-07-13T12:27:04;32.00;99.90
54788;DHT22;59598;48.112;16.280;2023-07-13T12:29:53;32.40;99.90
54788;DHT22;59598;48.112;16.280;2023-07-13T12:32:28;32.40;99.90
54788;DHT22;59598;48.112;16.280;2023-07-13T12:35:14;32.00;99.90
54788;DHT22;59598;48.112;16.280;2023-07-13T12:37:46;31.20;99.90
54788;DHT22;59598;48.112;16.280;2023-07-13T12:40:21;30.00;1.00
54788;DHT22;59598;48.112;16.280;2023-07-13T12:42:59;29.30;99.90
54788;DHT22;59598;48.112;16.280;2023-07-13T12:45:32;29.40;99.90
54788;DHT22;59598;48.112;16.280;2023-07-13T12:48:10;29.10;1.00
54788;DHT22;59598;48.112;16.280;2023-07-13T12:50:48;29.20;35.50
54788;DHT22;59598;48.112;16.280;2023-07-13T12:53:29;29.40;1.00
54788;DHT22;59598;48.112;16.280;2023-07-13T12:56:04;29.80;99.90
54788;DHT22;59598;48.112;16.280;2023-07-13T12:58:41;29.20;1.00
54788;DHT22;59598;48.112;16.280;2023-07-13T13:01:14;29.30;1.00
54788;DHT22;59598;48.112;16.280;2023-07-13T13:03:52;29.40;1.00
54788;DHT22;59598;48.112;16.280;2023-07-13T13:06:26;29.30;99.90
54788;DHT22;59598;48.112;16.280;2023-07-13T13:09:02;29.40;99.90
54788;DHT22;59598;48.112;16.280;2023-07-13T13:11:34;29.80;1.00
54788;DHT22;59598;48.112;16.280;2023-07-13T13:14:06;29.60;1.00
54788;DHT22;59598;48.112;16.280;2023-07-13T13:16:51;29.80;99.90
54788;DHT22;59598;48.112;16.280;2023-07-13T13:19:28;30.40;1.00
54788;DHT22;59598;48.112;16.280;2023-07-13T13:22:01;29.70;1.00
54788;DHT22;59598;48.112;16.280;2023-07-13T13:24:33;29.20;99.90
54788;DHT22;59598;48.112;16.280;2023-07-13T13:27:17;29.80;99.90
54788;DHT22;59598;48.112;16.280;2023-07-13T13:29:53;29.70;99.90
54788;DHT22;59598;48.112;16.280;2023-07-13T13:32:24;30.30;1.00
54788;DHT22;59598;48.112;16.280;2023-07-13T13:34:55;30.60;1.00
54788;DHT22;59598;48.112;16.280;2023-07-13T13:37:31;31.00;1.00
54788;DHT22;59598;48.112;16.280;2023-07-13T13:40:15;31.50;1.00
54788;DHT22;59598;48.112;16.280;2023-07-13T13:42:47;31.30;1.00
54788;DHT22;59598;48.112;16.280;2023-07-13T13:45:22;30.40;1.00
54788;DHT22;59598;48.112;16.280;2023-07-13T13:47:56;29.70;1.00
54788;DHT22;59598;48.112;16.280;2023-07-13T13:50:28;29.40;99.90
54788;DHT22;59598;48.112;16.280;2023-07-13T13:53:02;29.40;1.00
54788;DHT22;59598;48.112;16.280;2023-07-13T13:55:33;29.10;1.00
54788;DHT22;59598;48.112;16.280;2023-07-13T13:58:07;29.00;1.00
54788;DHT22;59598;48.112;16.280;2023-07-13T14:00:44;29.30;1.00
54788;DHT22;59598;48.112;16.280;2023-07-13T14:03:24;30.00;1.00
54788;DHT22;59598;48.112;16.280;2023-07-13T14:05:55;29.90;1.00
54788;DHT22;59598;48.112;16.280;2023-07-13T14:08:28;29.20;1.00
54788;DHT22;59598;48.112;16.280;2023-07-13T14:11:01;28.80;99.90
54788;DHT22;59598;48.112;16.280;2023-07-13T14:13:40;28.30;99.90
54788;DHT22;59598;48.112;16.280;2023-07-13T14:16:16;28.20;99.90
54788;DHT22;59598;48.112;16.280;2023-07-13T14:18:51;28.10;1.00
54788;DHT22;59598;48.112;16.280;2023-07-13T14:21:23;27.60;1.00
54788;DHT22;59598;48.112;16.280;2023-07-13T14:23:54;27.90;1.00
54788;DHT22;59598;48.112;16.280;2023-07-13T14:26:29;27.60;1.00
54788;DHT22;59598;48.112;16.280;2023-07-13T14:29:08;27.50;99.90
54788;DHT22;59598;48.112;16.280;2023-07-13T14:31:42;27.30;99.90
54788;DHT22;59598;48.112;16.280;2023-07-13T14:34:13;27.10;99.90
54788;DHT22;59598;48.112;16.280;2023-07-13T14:36:49;27.10;99.90
54788;DHT22;59598;48.112;16.280;2023-07-13T14:39:26;27.30;99.90
54788;DHT22;59598;48.112;16.280;2023-07-13T14:41:58;26.90;99.90
54788;DHT22;59598;48.112;16.280;2023-07-13T14:44:31;26.70;99.90
54788;DHT22;59598;48.112;16.280;2023-07-13T14:47:05;26.60;99.90
54788;DHT22;59598;48.112;16.280;2023-07-13T14:49:39;26.50;99.90
54788;DHT22;59598;48.112;16.280;2023-07-13T14:52:14;26.40;99.90
54788;DHT22;59598;48.112;16.280;2023-07-13T14:54:49;26.20;99.90
54788;DHT22;59598;48.112;16.280;2023-07-13T14:57:23;26.20;99.90
54788;DHT22;59598;48.112;16.280;2023-07-13T14:59:54;26.20;99.90
54788;DHT22;59598;48.112;16.280;2023-07-13T15:02:30;26.20;99.90
54788;DHT22;59598;48.112;16.280;2023-07-13T15:05:13;26.20;99.90
54788;DHT22;59598;48.112;16.280;2023-07-13T15:07:50;26.30;99.90
54788;DHT22;59598;48.112;16.280;2023-07-13T15:10:28;26.50;99.90
54788;DHT22;59598;48.112;16.280;2023-07-13T15:13:20;26.30;99.90
54788;DHT22;59598;48.112;16.280;2023-07-13T15:15:55;26.40;99.90
54788;DHT22;59598;48.112;16.280;2023-07-13T15:18:27;26.50;99.90
54788;DHT22;59598;48.112;16.280;2023-07-13T15:21:02;26.50;99.90
54788;DHT22;59598;48.112;16.280;2023-07-13T15:23:35;26.40;99.90
54788;DHT22;59598;48.112;16.280;2023-07-13T15:26:11;26.40;99.90
54788;DHT22;59598;48.112;16.280;2023-07-13T15:28:45;26.10;48.70
54788;DHT22;59598;48.112;16.280;2023-07-13T15:31:22;25.90;99.90
54788;DHT22;59598;48.112;16.280;2023-07-13T15:33:56;25.90;99.90
54788;DHT22;59598;48.112;16.280;2023-07-13T15:36:28;25.60;99.90
54788;DHT22;59598;48.112;16.280;2023-07-13T15:39:02;25.40;99.90
54788;DHT22;59598;48.112;16.280;2023-07-13T15:41:39;25.30;99.90
54788;DHT22;59598;48.112;16.280;2023-07-13T15:44:32;25.10;99.90
54788;DHT22;59598;48.112;16.280;2023-07-13T15:47:10;24.90;99.90
54788;DHT22;59598;48.112;16.280;2023-07-13T15:49:46;24.80;90.70
54788;DHT22;59598;48.112;16.280;2023-07-13T15:52:19;24.80;99.90
54788;DHT22;59598;48.112;16.280;2023-07-13T15:54:51;24.70;99.90
54788;DHT22;59598;48.112;16.280;2023-07-13T15:57:24;24.60;99.90
54788;DHT22;59598;48.112;16.280;2023-07-13T15:59:56;24.50;99.90
54788;DHT22;59598;48.112;16.280;2023-07-13T16:02:29;24.40;99.90
54788;DHT22;59598;48.112;16.280;2023-07-13T16:05:04;24.40;99.90
54788;DHT22;59598;48.112;16.280;2023-07-13T16:07:35;24.30;99.90
54788;DHT22;59598;48.112;16.280;2023-07-13T16:10:09;24.20;99.90
54788;DHT22;59598;48.112;16.280;2023-07-13T16:12:44;24.20;56.00
54788;DHT22;59598;48.112;16.280;2023-07-13T16:15:18;24.10;99.90
54788;DHT22;59598;48.112;16.280;2023-07-13T16:17:50;24.10;99.90
54788;DHT22;59598;48.112;16.280;2023-07-13T16:20:22;24.10;99.90
54788;DHT22;59598;48.112;16.280;2023-07-13T16:22:55;24.00;99.90
54788;DHT22;59598;48.112;16.280;2023-07-13T16:25:28;23.70;1.00
54788;DHT22;59598;48.112;16.280;2023-07-13T16:28:01;23.10;1.00
54788;DHT22;59598;48.112;16.280;2023-07-13T16:30:36;22.60;99.90
54788;DHT22;59598;48.112;16.280;2023-07-13T16:33:08;22.30;99.90
54788;DHT22;59598;48.112;16.280;2023-07-13T16:35:41;22.30;99.90
54788;DHT22;59598;48.112;16.280;2023-07-13T16:38:19;22.40;1.00
54788;DHT22;59598;48.112;16.280;2023-07-13T16:40:50;22.60;99.90
54788;DHT22;59598;48.112;16.280;2023-07-13T16:43:22;22.80;1.00
54788;DHT22;59598;48.112;16.280;2023-07-13T16:45:59;23.00;1.00
54788;DHT22;59598;48.112;16.280;2023-07-13T16:48:34;23.10;99.90
54788;DHT22;59598;48.112;16.280;2023-07-13T16:51:13;23.20;99.90
54788;DHT22;59598;48.112;16.280;2023-07-13T16:53:45;23.20;86.40
54788;DHT22;59598;48.112;16.280;2023-07-13T16:56:22;23.20;99.90
54788;DHT22;59598;48.112;16.280;2023-07-13T16:58:53;23.10;99.90
54788;DHT22;59598;48.112;16.280;2023-07-13T17:01:24;23.10;26.00
54788;DHT22;59598;48.112;16.280;2023-07-13T17:03:58;23.10;21.20
54788;DHT22;59598;48.112;16.280;2023-07-13T17:06:34;23.10;1.00
54788;DHT22;59598;48.112;16.280;2023-07-13T17:09:11;23.20;1.00
54788;DHT22;59598;48.112;16.280;2023-07-13T17:11:48;23.20;1.00